Friday, January 18, 2019, 3:24 AM EST
Back to Local

KMQE, Milton Blue Hill Observ

Location: Milton, MA, United States Lat: 42.217
Local Time: 3:24 AM EST ( 8:24 GMT) Lon: -71.117
Time Zone: US/Eastern Elev: 629 ft

Show me the last for .
Show Coded

Time T Td Feel RH Dir Speed Gust Alt SLP Vis Weather Sky Remarks
2019-01-18 02:56 23 4 13 43 130° 9 - 30.20 30.26 0 None
2019-01-18 01:56 22 6 11 49 130° 10 - 30.22 30.27 0 None
2019-01-18 00:56 21 7 9 53 110° 12 - 30.21 30.27 0 6-hr Min Temp (1am): 19.9°F
6-hr Max Temp (1am): 21.0°F
2019-01-17 23:56 20 8 8 59 130° 12 - 30.25 30.31 0 24-hr Min Temp (12am): 12.9°F
24-hr Max Temp (12am): 26.1°F
2019-01-17 22:56 21 8 11 56 140° 9 - 30.27 30.34 0 None
2019-01-17 20:56 21 6 11 51 140° 8 - 30.28 30.35 0 None
2019-01-17 19:56 21 6 10 51 140° 10 - 30.29 30.35 0 None
2019-01-17 18:56 21 3 11 44 130° 8 - 30.29 30.36 0 6-hr Min Temp (7pm): 21.0°F
6-hr Max Temp (7pm): 26.1°F
2019-01-17 17:56 22 -2 13 34 110° 8 - 30.29 30.35 0 None
2019-01-17 16:56 23 -6 18 26 130° 3 - 30.29 30.35 0 None
2019-01-17 15:56 25 -5 - 25 - Calm - 30.28 30.34 0 None
2019-01-17 14:56 26 -6 - 23 - Calm - 30.29 30.35 0 None
2019-01-17 13:56 25 -6 - 24 - Calm - 30.30 30.36 0 None
2019-01-17 12:56 24 -6 20 25 Variable 3 - 30.30 30.36 0 6-hr Min Temp (1pm): 12.9°F
6-hr Max Temp (1pm): 24.1°F
2019-01-17 11:56 23 -5 17 28 Variable 5 - 30.32 30.38 0 None
2019-01-17 10:56 20 -4 9 33 330° 9 - 30.35 30.40 0 None
2019-01-17 09:56 17 -1 5 44 330° 10 - 30.35 30.41 0 None
2019-01-17 08:56 15 1 -1 52 330° 10 16 30.33 30.39 0 None
2019-01-17 07:56 14 1 1 55 320° 10 - 30.30 30.36 0 None
2019-01-17 06:56 14 1 -4 55 320° 14 21 30.28 30.34 0 6-hr Min Temp (7am): 14.0°F
6-hr Max Temp (7am): 26.1°F
2019-01-17 05:56 16 3 4 55 330° 10 - 30.26 30.32 0 None
2019-01-17 04:56 18 2 1 48 320° 8 21 30.24 30.30 0 None
2019-01-17 03:56 20 4 4 49 320° 10 21 30.22 30.27 0 None

Support USWX by starting your Amazon purchase here.